sensor_id;sensor_type;location;lat;lon;timestamp;P1;durP1;ratioP1;P2;durP2;ratioP2
25391;SDS011;13329;48.402;11.718;2023-07-09T00:02:01;7.43;;;3.95;;
25391;SDS011;13329;48.402;11.718;2023-07-09T00:04:26;7.83;;;3.43;;
25391;SDS011;13329;48.402;11.718;2023-07-09T00:06:53;7.32;;;3.90;;
25391;SDS011;13329;48.402;11.718;2023-07-09T00:09:20;6.13;;;3.35;;
25391;SDS011;13329;48.402;11.718;2023-07-09T00:11:45;8.27;;;3.90;;
25391;SDS011;13329;48.402;11.718;2023-07-09T00:14:11;7.50;;;4.00;;
25391;SDS011;13329;48.402;11.718;2023-07-09T00:16:36;8.82;;;4.30;;
25391;SDS011;13329;48.402;11.718;2023-07-09T00:19:02;8.43;;;4.15;;
25391;SDS011;13329;48.402;11.718;2023-07-09T00:21:27;7.40;;;3.88;;
25391;SDS011;13329;48.402;11.718;2023-07-09T00:23:58;7.55;;;3.92;;
25391;SDS011;13329;48.402;11.718;2023-07-09T00:26:29;8.50;;;4.05;;
25391;SDS011;13329;48.402;11.718;2023-07-09T00:28:55;7.68;;;4.22;;
25391;SDS011;13329;48.402;11.718;2023-07-09T00:31:20;8.10;;;3.97;;
25391;SDS011;13329;48.402;11.718;2023-07-09T00:33:45;7.83;;;3.87;;
25391;SDS011;13329;48.402;11.718;2023-07-09T00:36:18;8.00;;;4.05;;
25391;SDS011;13329;48.402;11.718;2023-07-09T00:38:45;7.40;;;3.92;;
25391;SDS011;13329;48.402;11.718;2023-07-09T00:41:17;10.85;;;4.43;;
25391;SDS011;13329;48.402;11.718;2023-07-09T00:43:43;8.18;;;4.40;;
25391;SDS011;13329;48.402;11.718;2023-07-09T00:46:14;9.85;;;4.45;;
25391;SDS011;13329;48.402;11.718;2023-07-09T00:48:40;9.18;;;4.80;;
25391;SDS011;13329;48.402;11.718;2023-07-09T00:51:09;7.88;;;4.15;;
25391;SDS011;13329;48.402;11.718;2023-07-09T00:53:36;10.50;;;4.32;;
25391;SDS011;13329;48.402;11.718;2023-07-09T00:56:02;8.02;;;4.07;;
25391;SDS011;13329;48.402;11.718;2023-07-09T00:58:29;8.82;;;4.10;;
25391;SDS011;13329;48.402;11.718;2023-07-09T01:00:55;9.85;;;4.80;;
25391;SDS011;13329;48.402;11.718;2023-07-09T01:03:23;10.38;;;4.15;;
25391;SDS011;13329;48.402;11.718;2023-07-09T01:05:51;10.05;;;4.50;;
25391;SDS011;13329;48.402;11.718;2023-07-09T01:08:16;11.63;;;4.40;;
25391;SDS011;13329;48.402;11.718;2023-07-09T01:10:42;10.55;;;4.32;;
25391;SDS011;13329;48.402;11.718;2023-07-09T01:13:07;10.25;;;4.32;;
25391;SDS011;13329;48.402;11.718;2023-07-09T01:15:33;10.68;;;4.25;;
25391;SDS011;13329;48.402;11.718;2023-07-09T01:17:59;9.80;;;4.40;;
25391;SDS011;13329;48.402;11.718;2023-07-09T01:20:26;7.53;;;4.30;;
25391;SDS011;13329;48.402;11.718;2023-07-09T01:22:51;9.20;;;3.97;;
25391;SDS011;13329;48.402;11.718;2023-07-09T01:25:19;10.23;;;4.13;;
25391;SDS011;13329;48.402;11.718;2023-07-09T01:27:45;9.15;;;4.10;;
25391;SDS011;13329;48.402;11.718;2023-07-09T01:30:22;8.15;;;4.43;;
25391;SDS011;13329;48.402;11.718;2023-07-09T01:32:51;8.50;;;4.45;;
25391;SDS011;13329;48.402;11.718;2023-07-09T01:35:21;9.30;;;4.43;;
25391;SDS011;13329;48.402;11.718;2023-07-09T01:37:46;10.50;;;4.55;;
25391;SDS011;13329;48.402;11.718;2023-07-09T01:40:13;8.25;;;4.10;;
25391;SDS011;13329;48.402;11.718;2023-07-09T01:42:38;10.65;;;4.47;;
25391;SDS011;13329;48.402;11.718;2023-07-09T01:45:04;7.55;;;4.07;;
25391;SDS011;13329;48.402;11.718;2023-07-09T01:47:29;9.00;;;4.85;;
25391;SDS011;13329;48.402;11.718;2023-07-09T01:49:54;9.13;;;4.40;;
25391;SDS011;13329;48.402;11.718;2023-07-09T01:52:22;9.55;;;4.68;;
25391;SDS011;13329;48.402;11.718;2023-07-09T01:54:49;10.60;;;4.53;;
25391;SDS011;13329;48.402;11.718;2023-07-09T01:57:22;8.60;;;4.07;;
25391;SDS011;13329;48.402;11.718;2023-07-09T01:59:48;9.43;;;4.65;;
25391;SDS011;13329;48.402;11.718;2023-07-09T02:02:13;7.55;;;4.13;;
25391;SDS011;13329;48.402;11.718;2023-07-09T02:04:44;10.02;;;4.57;;
25391;SDS011;13329;48.402;11.718;2023-07-09T02:07:09;8.02;;;4.50;;
25391;SDS011;13329;48.402;11.718;2023-07-09T02:09:35;8.77;;;3.67;;
25391;SDS011;13329;48.402;11.718;2023-07-09T02:12:00;8.32;;;4.25;;
25391;SDS011;13329;48.402;11.718;2023-07-09T02:14:27;9.32;;;4.07;;
25391;SDS011;13329;48.402;11.718;2023-07-09T02:16:52;7.55;;;4.22;;
25391;SDS011;13329;48.402;11.718;2023-07-09T02:19:17;7.68;;;3.92;;
25391;SDS011;13329;48.402;11.718;2023-07-09T02:21:43;7.43;;;3.90;;
25391;SDS011;13329;48.402;11.718;2023-07-09T02:24:08;8.05;;;4.13;;
25391;SDS011;13329;48.402;11.718;2023-07-09T02:26:33;9.30;;;4.63;;
25391;SDS011;13329;48.402;11.718;2023-07-09T02:28:58;8.20;;;3.93;;
25391;SDS011;13329;48.402;11.718;2023-07-09T02:31:23;13.27;;;4.87;;
25391;SDS011;13329;48.402;11.718;2023-07-09T02:33:48;7.57;;;4.07;;
25391;SDS011;13329;48.402;11.718;2023-07-09T02:36:15;11.13;;;4.72;;
25391;SDS011;13329;48.402;11.718;2023-07-09T02:38:40;10.27;;;4.40;;
25391;SDS011;13329;48.402;11.718;2023-07-09T02:41:06;9.18;;;4.30;;
25391;SDS011;13329;48.402;11.718;2023-07-09T02:43:31;8.80;;;4.85;;
25391;SDS011;13329;48.402;11.718;2023-07-09T02:45:56;8.52;;;4.25;;
25391;SDS011;13329;48.402;11.718;2023-07-09T02:48:21;9.00;;;4.38;;
25391;SDS011;13329;48.402;11.718;2023-07-09T02:50:46;13.50;;;4.60;;
25391;SDS011;13329;48.402;11.718;2023-07-09T02:53:11;8.60;;;4.35;;
25391;SDS011;13329;48.402;11.718;2023-07-09T02:55:36;8.82;;;4.40;;
25391;SDS011;13329;48.402;11.718;2023-07-09T02:58:02;8.23;;;3.95;;
25391;SDS011;13329;48.402;11.718;2023-07-09T03:00:27;7.63;;;4.23;;
25391;SDS011;13329;48.402;11.718;2023-07-09T03:02:53;9.15;;;4.90;;
25391;SDS011;13329;48.402;11.718;2023-07-09T03:05:18;10.03;;;4.60;;
25391;SDS011;13329;48.402;11.718;2023-07-09T03:07:43;11.80;;;4.40;;
25391;SDS011;13329;48.402;11.718;2023-07-09T03:10:09;8.85;;;4.45;;
25391;SDS011;13329;48.402;11.718;2023-07-09T03:12:34;7.65;;;4.45;;
25391;SDS011;13329;48.402;11.718;2023-07-09T03:14:59;9.37;;;4.43;;
25391;SDS011;13329;48.402;11.718;2023-07-09T03:17:24;9.97;;;4.33;;
25391;SDS011;13329;48.402;11.718;2023-07-09T03:19:49;8.57;;;4.32;;
25391;SDS011;13329;48.402;11.718;2023-07-09T03:22:14;12.57;;;4.73;;
25391;SDS011;13329;48.402;11.718;2023-07-09T03:24:40;8.87;;;4.60;;
25391;SDS011;13329;48.402;11.718;2023-07-09T03:27:05;8.93;;;4.53;;
25391;SDS011;13329;48.402;11.718;2023-07-09T03:29:30;9.75;;;4.63;;
25391;SDS011;13329;48.402;11.718;2023-07-09T03:31:55;12.60;;;5.18;;
25391;SDS011;13329;48.402;11.718;2023-07-09T03:34:21;10.35;;;4.85;;
25391;SDS011;13329;48.402;11.718;2023-07-09T03:36:46;9.80;;;4.67;;
25391;SDS011;13329;48.402;11.718;2023-07-09T03:39:11;10.30;;;4.35;;
25391;SDS011;13329;48.402;11.718;2023-07-09T03:41:37;10.57;;;4.95;;
25391;SDS011;13329;48.402;11.718;2023-07-09T03:44:02;10.20;;;5.17;;
25391;SDS011;13329;48.402;11.718;2023-07-09T03:46:28;10.85;;;5.20;;
25391;SDS011;13329;48.402;11.718;2023-07-09T03:48:53;9.37;;;4.73;;
25391;SDS011;13329;48.402;11.718;2023-07-09T03:51:18;8.32;;;4.35;;
25391;SDS011;13329;48.402;11.718;2023-07-09T03:53:43;10.27;;;4.53;;
25391;SDS011;13329;48.402;11.718;2023-07-09T03:56:08;7.07;;;4.07;;
25391;SDS011;13329;48.402;11.718;2023-07-09T03:58:34;8.03;;;4.33;;
25391;SDS011;13329;48.402;11.718;2023-07-09T04:01:00;9.18;;;4.90;;
25391;SDS011;13329;48.402;11.718;2023-07-09T04:03:25;8.60;;;4.75;;
25391;SDS011;13329;48.402;11.718;2023-07-09T04:05:50;9.02;;;4.65;;
25391;SDS011;13329;48.402;11.718;2023-07-09T04:08:16;9.52;;;4.60;;
25391;SDS011;13329;48.402;11.718;2023-07-09T04:10:41;11.38;;;4.85;;
25391;SDS011;13329;48.402;11.718;2023-07-09T04:13:06;10.17;;;4.83;;
25391;SDS011;13329;48.402;11.718;2023-07-09T04:15:31;11.18;;;4.90;;
25391;SDS011;13329;48.402;11.718;2023-07-09T04:17:57;12.10;;;4.57;;
25391;SDS011;13329;48.402;11.718;2023-07-09T04:20:22;7.67;;;4.13;;
25391;SDS011;13329;48.402;11.718;2023-07-09T04:22:47;10.63;;;4.90;;
25391;SDS011;13329;48.402;11.718;2023-07-09T04:25:12;11.57;;;4.88;;
25391;SDS011;13329;48.402;11.718;2023-07-09T04:27:38;10.67;;;5.30;;
25391;SDS011;13329;48.402;11.718;2023-07-09T04:30:04;9.30;;;4.72;;
25391;SDS011;13329;48.402;11.718;2023-07-09T04:32:30;12.75;;;4.78;;
25391;SDS011;13329;48.402;11.718;2023-07-09T04:34:55;9.27;;;4.57;;
25391;SDS011;13329;48.402;11.718;2023-07-09T04:37:20;12.35;;;4.30;;
25391;SDS011;13329;48.402;11.718;2023-07-09T04:39:45;7.50;;;4.50;;
25391;SDS011;13329;48.402;11.718;2023-07-09T04:42:13;8.82;;;4.70;;
25391;SDS011;13329;48.402;11.718;2023-07-09T04:44:38;11.50;;;5.00;;
25391;SDS011;13329;48.402;11.718;2023-07-09T04:47:04;9.25;;;4.95;;
25391;SDS011;13329;48.402;11.718;2023-07-09T04:49:29;9.35;;;5.07;;
25391;SDS011;13329;48.402;11.718;2023-07-09T04:51:54;8.73;;;5.00;;
25391;SDS011;13329;48.402;11.718;2023-07-09T04:54:21;9.73;;;4.85;;
25391;SDS011;13329;48.402;11.718;2023-07-09T04:56:47;10.57;;;4.88;;
25391;SDS011;13329;48.402;11.718;2023-07-09T04:59:13;10.70;;;5.03;;
25391;SDS011;13329;48.402;11.718;2023-07-09T05:01:38;13.03;;;5.40;;
25391;SDS011;13329;48.402;11.718;2023-07-09T05:04:03;12.50;;;5.70;;
25391;SDS011;13329;48.402;11.718;2023-07-09T05:06:29;10.60;;;4.93;;
25391;SDS011;13329;48.402;11.718;2023-07-09T05:08:54;15.37;;;5.60;;
25391;SDS011;13329;48.402;11.718;2023-07-09T05:11:19;11.30;;;5.60;;
25391;SDS011;13329;48.402;11.718;2023-07-09T05:13:44;13.05;;;5.78;;
25391;SDS011;13329;48.402;11.718;2023-07-09T05:16:09;11.80;;;6.00;;
25391;SDS011;13329;48.402;11.718;2023-07-09T05:18:35;12.25;;;5.32;;
25391;SDS011;13329;48.402;11.718;2023-07-09T05:21:01;13.20;;;5.70;;
25391;SDS011;13329;48.402;11.718;2023-07-09T05:23:26;11.23;;;5.90;;
25391;SDS011;13329;48.402;11.718;2023-07-09T05:25:57;13.83;;;5.87;;
25391;SDS011;13329;48.402;11.718;2023-07-09T05:28:22;12.70;;;5.97;;
25391;SDS011;13329;48.402;11.718;2023-07-09T05:30:48;11.87;;;5.50;;
25391;SDS011;13329;48.402;11.718;2023-07-09T05:33:13;10.03;;;5.60;;
25391;SDS011;13329;48.402;11.718;2023-07-09T05:35:38;10.60;;;5.83;;
25391;SDS011;13329;48.402;11.718;2023-07-09T05:38:03;12.77;;;5.93;;
25391;SDS011;13329;48.402;11.718;2023-07-09T05:40:29;10.50;;;5.00;;
25391;SDS011;13329;48.402;11.718;2023-07-09T05:42:54;12.15;;;5.40;;
25391;SDS011;13329;48.402;11.718;2023-07-09T05:45:19;8.20;;;5.00;;
25391;SDS011;13329;48.402;11.718;2023-07-09T05:47:44;9.00;;;5.97;;
25391;SDS011;13329;48.402;11.718;2023-07-09T05:50:09;13.67;;;5.67;;
25391;SDS011;13329;48.402;11.718;2023-07-09T05:52:34;9.93;;;4.90;;
25391;SDS011;13329;48.402;11.718;2023-07-09T05:54:59;10.40;;;5.13;;
25391;SDS011;13329;48.402;11.718;2023-07-09T05:57:25;10.52;;;4.88;;
25391;SDS011;13329;48.402;11.718;2023-07-09T05:59:50;9.75;;;5.32;;
25391;SDS011;13329;48.402;11.718;2023-07-09T06:02:16;10.02;;;4.80;;
25391;SDS011;13329;48.402;11.718;2023-07-09T06:04:42;11.65;;;5.35;;
25391;SDS011;13329;48.402;11.718;2023-07-09T06:07:07;11.05;;;5.35;;
25391;SDS011;13329;48.402;11.718;2023-07-09T06:09:33;7.53;;;4.43;;
25391;SDS011;13329;48.402;11.718;2023-07-09T06:11:58;11.00;;;4.90;;
25391;SDS011;13329;48.402;11.718;2023-07-09T06:14:26;10.02;;;5.18;;
25391;SDS011;13329;48.402;11.718;2023-07-09T06:16:51;8.18;;;4.93;;
25391;SDS011;13329;48.402;11.718;2023-07-09T06:19:16;8.43;;;4.45;;
25391;SDS011;13329;48.402;11.718;2023-07-09T06:21:41;7.63;;;4.27;;
25391;SDS011;13329;48.402;11.718;2023-07-09T06:24:06;9.07;;;5.00;;
25391;SDS011;13329;48.402;11.718;2023-07-09T06:26:32;8.02;;;4.57;;
25391;SDS011;13329;48.402;11.718;2023-07-09T06:28:57;13.65;;;4.95;;
25391;SDS011;13329;48.402;11.718;2023-07-09T06:31:22;10.05;;;4.63;;
25391;SDS011;13329;48.402;11.718;2023-07-09T06:33:49;9.65;;;4.30;;
25391;SDS011;13329;48.402;11.718;2023-07-09T06:36:14;8.45;;;4.35;;
25391;SDS011;13329;48.402;11.718;2023-07-09T06:38:39;10.25;;;4.38;;
25391;SDS011;13329;48.402;11.718;2023-07-09T06:41:05;9.75;;;4.70;;
25391;SDS011;13329;48.402;11.718;2023-07-09T06:43:30;9.07;;;4.60;;
25391;SDS011;13329;48.402;11.718;2023-07-09T06:45:57;9.55;;;4.50;;
25391;SDS011;13329;48.402;11.718;2023-07-09T06:48:24;7.10;;;3.90;;
25391;SDS011;13329;48.402;11.718;2023-07-09T06:50:49;9.48;;;4.07;;
25391;SDS011;13329;48.402;11.718;2023-07-09T06:53:15;9.73;;;4.43;;
25391;SDS011;13329;48.402;11.718;2023-07-09T06:55:40;9.30;;;4.40;;
25391;SDS011;13329;48.402;11.718;2023-07-09T06:58:06;8.87;;;3.90;;
25391;SDS011;13329;48.402;11.718;2023-07-09T07:00:31;9.00;;;3.97;;
25391;SDS011;13329;48.402;11.718;2023-07-09T07:02:56;5.97;;;3.33;;
25391;SDS011;13329;48.402;11.718;2023-07-09T07:05:21;8.25;;;3.45;;
25391;SDS011;13329;48.402;11.718;2023-07-09T07:07:46;7.30;;;3.60;;
25391;SDS011;13329;48.402;11.718;2023-07-09T07:10:12;8.63;;;3.97;;
25391;SDS011;13329;48.402;11.718;2023-07-09T07:12:41;6.33;;;3.77;;
25391;SDS011;13329;48.402;11.718;2023-07-09T07:15:07;9.05;;;3.90;;
25391;SDS011;13329;48.402;11.718;2023-07-09T07:17:32;8.55;;;3.65;;
25391;SDS011;13329;48.402;11.718;2023-07-09T07:19:57;10.00;;;4.25;;
25391;SDS011;13329;48.402;11.718;2023-07-09T07:22:23;7.97;;;4.00;;
25391;SDS011;13329;48.402;11.718;2023-07-09T07:24:48;8.25;;;3.97;;
25391;SDS011;13329;48.402;11.718;2023-07-09T07:27:13;7.60;;;3.13;;
25391;SDS011;13329;48.402;11.718;2023-07-09T07:29:38;6.73;;;3.23;;
25391;SDS011;13329;48.402;11.718;2023-07-09T07:32:03;7.40;;;3.53;;
25391;SDS011;13329;48.402;11.718;2023-07-09T07:34:29;5.32;;;3.17;;
25391;SDS011;13329;48.402;11.718;2023-07-09T07:36:54;7.07;;;3.27;;
25391;SDS011;13329;48.402;11.718;2023-07-09T07:39:19;6.57;;;3.33;;
25391;SDS011;13329;48.402;11.718;2023-07-09T07:41:44;12.87;;;3.50;;
25391;SDS011;13329;48.402;11.718;2023-07-09T07:44:09;7.15;;;3.65;;
25391;SDS011;13329;48.402;11.718;2023-07-09T07:46:34;10.33;;;3.23;;
25391;SDS011;13329;48.402;11.718;2023-07-09T07:49:00;8.48;;;3.80;;
25391;SDS011;13329;48.402;11.718;2023-07-09T07:51:25;7.20;;;3.50;;
25391;SDS011;13329;48.402;11.718;2023-07-09T07:53:50;7.63;;;3.70;;
25391;SDS011;13329;48.402;11.718;2023-07-09T07:56:15;6.67;;;2.63;;
25391;SDS011;13329;48.402;11.718;2023-07-09T07:58:40;8.53;;;3.37;;
25391;SDS011;13329;48.402;11.718;2023-07-09T08:01:06;7.40;;;2.72;;
25391;SDS011;13329;48.402;11.718;2023-07-09T08:03:31;6.38;;;3.13;;
25391;SDS011;13329;48.402;11.718;2023-07-09T08:05:56;12.13;;;3.53;;
25391;SDS011;13329;48.402;11.718;2023-07-09T08:08:21;5.57;;;3.20;;
25391;SDS011;13329;48.402;11.718;2023-07-09T08:10:46;6.10;;;2.78;;
25391;SDS011;13329;48.402;11.718;2023-07-09T08:13:11;6.43;;;2.83;;
25391;SDS011;13329;48.402;11.718;2023-07-09T08:15:38;6.03;;;2.70;;
25391;SDS011;13329;48.402;11.718;2023-07-09T08:18:03;6.07;;;2.70;;
25391;SDS011;13329;48.402;11.718;2023-07-09T08:20:28;7.00;;;3.07;;
25391;SDS011;13329;48.402;11.718;2023-07-09T08:22:53;7.03;;;2.35;;
25391;SDS011;13329;48.402;11.718;2023-07-09T08:25:19;6.73;;;2.43;;
25391;SDS011;13329;48.402;11.718;2023-07-09T08:27:44;4.63;;;2.60;;
25391;SDS011;13329;48.402;11.718;2023-07-09T08:30:10;5.63;;;2.17;;
25391;SDS011;13329;48.402;11.718;2023-07-09T08:32:35;4.05;;;2.30;;
25391;SDS011;13329;48.402;11.718;2023-07-09T08:35:00;5.90;;;2.40;;
25391;SDS011;13329;48.402;11.718;2023-07-09T08:37:25;7.20;;;2.30;;
25391;SDS011;13329;48.402;11.718;2023-07-09T08:39:51;4.10;;;2.30;;
25391;SDS011;13329;48.402;11.718;2023-07-09T08:42:29;7.50;;;2.40;;
25391;SDS011;13329;48.402;11.718;2023-07-09T08:49:59;6.25;;;2.30;;
25391;SDS011;13329;48.402;11.718;2023-07-09T08:52:27;4.70;;;2.25;;
25391;SDS011;13329;48.402;11.718;2023-07-09T08:54:53;6.10;;;1.92;;
25391;SDS011;13329;48.402;11.718;2023-07-09T08:57:21;4.38;;;2.35;;
25391;SDS011;13329;48.402;11.718;2023-07-09T08:59:48;7.20;;;2.40;;
25391;SDS011;13329;48.402;11.718;2023-07-09T09:02:16;6.18;;;2.20;;
25391;SDS011;13329;48.402;11.718;2023-07-09T09:04:47;4.85;;;2.25;;
25391;SDS011;13329;48.402;11.718;2023-07-09T09:09:49;3.72;;;1.73;;
25391;SDS011;13329;48.402;11.718;2023-07-09T09:12:20;3.92;;;2.03;;
25391;SDS011;13329;48.402;11.718;2023-07-09T09:14:52;5.28;;;1.90;;
25391;SDS011;13329;48.402;11.718;2023-07-09T09:17:19;3.97;;;1.90;;
25391;SDS011;13329;48.402;11.718;2023-07-09T09:19:46;8.60;;;2.20;;
25391;SDS011;13329;48.402;11.718;2023-07-09T09:22:12;3.38;;;1.98;;
25391;SDS011;13329;48.402;11.718;2023-07-09T09:27:22;3.95;;;1.95;;
25391;SDS011;13329;48.402;11.718;2023-07-09T09:29:48;4.93;;;1.90;;
25391;SDS011;13329;48.402;11.718;2023-07-09T09:34:47;3.42;;;1.92;;
25391;SDS011;13329;48.402;11.718;2023-07-09T09:37:12;6.30;;;2.40;;
25391;SDS011;13329;48.402;11.718;2023-07-09T09:39:38;4.57;;;1.80;;
25391;SDS011;13329;48.402;11.718;2023-07-09T09:42:07;5.10;;;2.13;;
25391;SDS011;13329;48.402;11.718;2023-07-09T09:44:35;4.70;;;2.08;;
25391;SDS011;13329;48.402;11.718;2023-07-09T09:47:00;3.57;;;2.00;;
25391;SDS011;13329;48.402;11.718;2023-07-09T09:49:25;3.93;;;2.00;;
25391;SDS011;13329;48.402;11.718;2023-07-09T09:51:50;6.47;;;1.98;;
25391;SDS011;13329;48.402;11.718;2023-07-09T09:54:17;5.40;;;1.70;;
25391;SDS011;13329;48.402;11.718;2023-07-09T09:56:43;3.05;;;1.70;;
25391;SDS011;13329;48.402;11.718;2023-07-09T09:59:17;6.40;;;1.92;;
25391;SDS011;13329;48.402;11.718;2023-07-09T10:01:42;4.80;;;2.17;;
25391;SDS011;13329;48.402;11.718;2023-07-09T10:04:08;5.18;;;1.77;;
25391;SDS011;13329;48.402;11.718;2023-07-09T10:06:39;3.25;;;2.00;;
25391;SDS011;13329;48.402;11.718;2023-07-09T10:09:27;5.10;;;2.30;;
25391;SDS011;13329;48.402;11.718;2023-07-09T10:11:58;2.67;;;1.67;;
25391;SDS011;13329;48.402;11.718;2023-07-09T10:14:48;5.10;;;2.03;;
25391;SDS011;13329;48.402;11.718;2023-07-09T10:17:57;5.35;;;2.10;;
25391;SDS011;13329;48.402;11.718;2023-07-09T10:22:43;4.57;;;2.15;;
25391;SDS011;13329;48.402;11.718;2023-07-09T10:25:20;6.95;;;1.90;;
25391;SDS011;13329;48.402;11.718;2023-07-09T10:30:13;4.15;;;2.10;;
25391;SDS011;13329;48.402;11.718;2023-07-09T10:35:17;4.70;;;1.92;;
25391;SDS011;13329;48.402;11.718;2023-07-09T10:40:09;4.78;;;1.95;;
25391;SDS011;13329;48.402;11.718;2023-07-09T10:45:07;3.78;;;1.85;;
25391;SDS011;13329;48.402;11.718;2023-07-09T10:47:38;3.42;;;1.83;;
25391;SDS011;13329;48.402;11.718;2023-07-09T10:50:05;4.07;;;1.63;;
25391;SDS011;13329;48.402;11.718;2023-07-09T10:52:33;3.45;;;1.85;;
25391;SDS011;13329;48.402;11.718;2023-07-09T10:55:00;3.20;;;1.85;;
25391;SDS011;13329;48.402;11.718;2023-07-09T10:57:29;3.40;;;1.73;;
25391;SDS011;13329;48.402;11.718;2023-07-09T10:59:55;4.55;;;1.90;;
25391;SDS011;13329;48.402;11.718;2023-07-09T11:02:25;3.92;;;1.63;;
25391;SDS011;13329;48.402;11.718;2023-07-09T11:05:00;4.10;;;2.17;;
25391;SDS011;13329;48.402;11.718;2023-07-09T11:07:36;4.47;;;1.80;;
25391;SDS011;13329;48.402;11.718;2023-07-09T11:10:06;5.25;;;2.22;;
25391;SDS011;13329;48.402;11.718;2023-07-09T11:12:34;3.15;;;2.00;;
25391;SDS011;13329;48.402;11.718;2023-07-09T11:15:05;5.07;;;2.05;;
25391;SDS011;13329;48.402;11.718;2023-07-09T11:17:33;4.40;;;2.00;;
25391;SDS011;13329;48.402;11.718;2023-07-09T11:20:00;4.65;;;2.20;;
25391;SDS011;13329;48.402;11.718;2023-07-09T11:22:26;6.53;;;1.98;;
25391;SDS011;13329;48.402;11.718;2023-07-09T11:25:04;4.35;;;2.05;;
25391;SDS011;13329;48.402;11.718;2023-07-09T11:27:30;4.35;;;2.25;;
25391;SDS011;13329;48.402;11.718;2023-07-09T11:29:57;4.32;;;2.08;;
25391;SDS011;13329;48.402;11.718;2023-07-09T11:32:22;5.10;;;1.83;;
25391;SDS011;13329;48.402;11.718;2023-07-09T11:34:48;6.07;;;2.30;;
25391;SDS011;13329;48.402;11.718;2023-07-09T11:37:13;4.07;;;2.03;;
25391;SDS011;13329;48.402;11.718;2023-07-09T11:44:51;3.72;;;2.15;;
25391;SDS011;13329;48.402;11.718;2023-07-09T11:47:22;3.88;;;1.73;;
25391;SDS011;13329;48.402;11.718;2023-07-09T11:49:51;3.22;;;1.90;;
25391;SDS011;13329;48.402;11.718;2023-07-09T11:52:18;3.97;;;1.92;;
25391;SDS011;13329;48.402;11.718;2023-07-09T11:54:45;4.22;;;2.55;;
25391;SDS011;13329;48.402;11.718;2023-07-09T11:57:11;4.93;;;1.97;;
25391;SDS011;13329;48.402;11.718;2023-07-09T11:59:43;8.55;;;2.40;;
25391;SDS011;13329;48.402;11.718;2023-07-09T12:02:13;5.55;;;1.95;;
25391;SDS011;13329;48.402;11.718;2023-07-09T12:04:38;4.57;;;2.42;;
25391;SDS011;13329;48.402;11.718;2023-07-09T12:07:04;4.80;;;2.60;;
25391;SDS011;13329;48.402;11.718;2023-07-09T12:09:32;5.07;;;2.20;;
25391;SDS011;13329;48.402;11.718;2023-07-09T12:11:57;2.92;;;2.00;;
25391;SDS011;13329;48.402;11.718;2023-07-09T12:14:22;5.93;;;2.00;;
25391;SDS011;13329;48.402;11.718;2023-07-09T12:16:50;4.90;;;2.28;;
25391;SDS011;13329;48.402;11.718;2023-07-09T12:19:24;5.43;;;2.03;;
25391;SDS011;13329;48.402;11.718;2023-07-09T12:21:56;3.13;;;1.75;;
25391;SDS011;13329;48.402;11.718;2023-07-09T12:24:26;3.30;;;1.88;;
25391;SDS011;13329;48.402;11.718;2023-07-09T12:26:52;5.90;;;2.13;;
25391;SDS011;13329;48.402;11.718;2023-07-09T12:29:17;4.97;;;2.05;;
25391;SDS011;13329;48.402;11.718;2023-07-09T12:31:42;4.93;;;2.10;;
25391;SDS011;13329;48.402;11.718;2023-07-09T12:34:14;4.57;;;1.90;;
25391;SDS011;13329;48.402;11.718;2023-07-09T12:36:48;4.18;;;1.95;;
25391;SDS011;13329;48.402;11.718;2023-07-09T12:39:15;5.43;;;2.23;;
25391;SDS011;13329;48.402;11.718;2023-07-09T12:41:41;5.40;;;2.28;;
25391;SDS011;13329;48.402;11.718;2023-07-09T12:46:41;4.93;;;1.95;;
25391;SDS011;13329;48.402;11.718;2023-07-09T12:49:07;3.65;;;1.98;;
25391;SDS011;13329;48.402;11.718;2023-07-09T12:51:32;4.00;;;1.95;;
25391;SDS011;13329;48.402;11.718;2023-07-09T12:54:14;3.88;;;2.05;;
25391;SDS011;13329;48.402;11.718;2023-07-09T12:56:40;6.68;;;2.30;;
25391;SDS011;13329;48.402;11.718;2023-07-09T12:59:13;3.15;;;1.80;;
25391;SDS011;13329;48.402;11.718;2023-07-09T13:01:40;4.88;;;1.90;;
25391;SDS011;13329;48.402;11.718;2023-07-09T13:04:05;5.23;;;2.00;;
25391;SDS011;13329;48.402;11.718;2023-07-09T13:06:34;3.90;;;2.08;;
25391;SDS011;13329;48.402;11.718;2023-07-09T13:09:00;5.53;;;1.88;;
25391;SDS011;13329;48.402;11.718;2023-07-09T13:11:31;4.33;;;2.03;;
25391;SDS011;13329;48.402;11.718;2023-07-09T13:13:59;4.50;;;1.88;;
25391;SDS011;13329;48.402;11.718;2023-07-09T13:16:26;4.00;;;1.90;;
25391;SDS011;13329;48.402;11.718;2023-07-09T13:18:52;5.38;;;2.10;;
25391;SDS011;13329;48.402;11.718;2023-07-09T13:21:17;3.47;;;1.95;;
25391;SDS011;13329;48.402;11.718;2023-07-09T13:23:43;4.78;;;2.38;;
25391;SDS011;13329;48.402;11.718;2023-07-09T13:26:08;3.77;;;2.20;;
25391;SDS011;13329;48.402;11.718;2023-07-09T13:28:33;4.33;;;2.03;;
25391;SDS011;13329;48.402;11.718;2023-07-09T13:31:09;5.30;;;1.90;;
25391;SDS011;13329;48.402;11.718;2023-07-09T13:33:36;4.07;;;2.10;;
25391;SDS011;13329;48.402;11.718;2023-07-09T13:36:04;5.50;;;2.10;;
25391;SDS011;13329;48.402;11.718;2023-07-09T13:38:31;6.63;;;2.60;;
25391;SDS011;13329;48.402;11.718;2023-07-09T13:40:57;3.60;;;2.00;;
25391;SDS011;13329;48.402;11.718;2023-07-09T13:43:28;5.88;;;2.33;;
25391;SDS011;13329;48.402;11.718;2023-07-09T13:45:54;3.72;;;1.85;;
25391;SDS011;13329;48.402;11.718;2023-07-09T13:48:21;4.32;;;2.03;;
25391;SDS011;13329;48.402;11.718;2023-07-09T13:50:48;5.23;;;1.90;;
25391;SDS011;13329;48.402;11.718;2023-07-09T13:53:14;4.20;;;1.90;;
25391;SDS011;13329;48.402;11.718;2023-07-09T13:55:40;4.72;;;2.53;;
25391;SDS011;13329;48.402;11.718;2023-07-09T13:58:07;6.30;;;2.13;;
25391;SDS011;13329;48.402;11.718;2023-07-09T14:00:33;2.85;;;1.73;;
25391;SDS011;13329;48.402;11.718;2023-07-09T14:02:58;6.18;;;2.10;;
25391;SDS011;13329;48.402;11.718;2023-07-09T14:05:23;5.17;;;2.10;;
25391;SDS011;13329;48.402;11.718;2023-07-09T14:07:48;3.67;;;2.20;;
25391;SDS011;13329;48.402;11.718;2023-07-09T14:10:14;2.70;;;1.70;;
25391;SDS011;13329;48.402;11.718;2023-07-09T14:12:42;3.85;;;2.00;;
25391;SDS011;13329;48.402;11.718;2023-07-09T14:15:13;3.95;;;1.60;;
25391;SDS011;13329;48.402;11.718;2023-07-09T14:17:39;5.75;;;1.90;;
25391;SDS011;13329;48.402;11.718;2023-07-09T14:20:05;5.17;;;2.20;;
25391;SDS011;13329;48.402;11.718;2023-07-09T14:22:32;3.38;;;1.92;;
25391;SDS011;13329;48.402;11.718;2023-07-09T14:24:58;3.88;;;2.20;;
25391;SDS011;13329;48.402;11.718;2023-07-09T14:27:24;3.17;;;1.83;;
25391;SDS011;13329;48.402;11.718;2023-07-09T14:29:49;5.40;;;1.98;;
25391;SDS011;13329;48.402;11.718;2023-07-09T14:32:29;6.03;;;2.00;;
25391;SDS011;13329;48.402;11.718;2023-07-09T14:34:55;5.40;;;2.20;;
25391;SDS011;13329;48.402;11.718;2023-07-09T14:37:21;3.83;;;1.97;;
25391;SDS011;13329;48.402;11.718;2023-07-09T14:39:46;4.63;;;2.50;;
25391;SDS011;13329;48.402;11.718;2023-07-09T14:42:12;4.13;;;1.70;;
25391;SDS011;13329;48.402;11.718;2023-07-09T14:44:37;2.90;;;1.90;;
25391;SDS011;13329;48.402;11.718;2023-07-09T14:47:04;5.27;;;2.00;;
25391;SDS011;13329;48.402;11.718;2023-07-09T14:52:00;5.32;;;2.13;;
25391;SDS011;13329;48.402;11.718;2023-07-09T14:54:29;5.57;;;1.93;;
25391;SDS011;13329;48.402;11.718;2023-07-09T14:56:55;6.10;;;2.10;;
25391;SDS011;13329;48.402;11.718;2023-07-09T14:59:21;6.20;;;2.22;;
25391;SDS011;13329;48.402;11.718;2023-07-09T15:01:47;3.80;;;1.85;;
25391;SDS011;13329;48.402;11.718;2023-07-09T15:06:50;4.88;;;2.10;;